createdAt,value
2017-03-02T00:00:50.089Z,60.54
2017-03-02T00:01:56.111Z,60.54
2017-03-02T00:03:04.805Z,60.55
2017-03-02T00:03:44.497Z,60.57
2017-03-02T00:04:49.036Z,60.58
2017-03-02T00:05:52.717Z,60.57
2017-03-02T00:06:45.198Z,60.59
2017-03-02T00:07:55.641Z,60.62
2017-03-02T00:08:48.889Z,60.65
2017-03-02T00:09:47.534Z,60.66
2017-03-02T00:10:50.574Z,60.67
2017-03-02T00:11:56.130Z,60.68
2017-03-02T00:12:58.977Z,60.68
2017-03-02T00:13:53.880Z,60.70
2017-03-02T00:14:53.836Z,60.74
2017-03-02T00:15:46.522Z,60.74
2017-03-02T00:16:53.890Z,60.75
2017-03-02T00:17:53.447Z,60.80
2017-03-02T00:18:54.442Z,60.77
2017-03-02T00:19:46.398Z,60.79
2017-03-02T00:20:54.308Z,60.81
2017-03-02T00:22:58.756Z,60.81
2017-03-02T00:23:54.199Z,60.82
2017-03-02T00:24:45.758Z,60.82
2017-03-02T00:25:55.210Z,60.85
2017-03-02T00:27:19.213Z,60.86
2017-03-02T00:28:06.461Z,60.84
2017-03-02T00:28:55.428Z,60.86
2017-03-02T00:30:03.181Z,60.91
2017-03-02T00:30:53.749Z,60.92
2017-03-02T00:31:54.739Z,60.94
2017-03-02T00:32:43.989Z,60.95
2017-03-02T00:33:56.939Z,60.96
2017-03-02T00:34:54.465Z,60.95
2017-03-02T00:35:54.559Z,61.00
2017-03-02T00:36:55.531Z,61.02
2017-03-02T00:37:56.434Z,61.00
2017-03-02T00:38:55.295Z,61.04
2017-03-02T00:39:50.271Z,61.02
2017-03-02T00:40:47.093Z,61.04
2017-03-02T00:41:55.387Z,61.06
2017-03-02T00:42:55.403Z,61.06
2017-03-02T00:43:40.296Z,61.07
2017-03-02T00:44:45.782Z,61.05
2017-03-02T00:45:57.784Z,61.09
2017-03-02T00:46:53.466Z,61.10
2017-03-02T00:47:49.047Z,61.13
2017-03-02T00:48:45.450Z,61.11
2017-03-02T00:49:50.121Z,61.11
2017-03-02T00:50:55.574Z,61.11
2017-03-02T00:51:51.976Z,61.12
2017-03-02T00:52:59.375Z,61.15
2017-03-02T00:53:56.995Z,61.16
2017-03-02T00:55:04.211Z,61.15
2017-03-02T00:55:44.517Z,61.13
2017-03-02T00:56:54.022Z,61.13
2017-03-02T00:57:58.026Z,61.16
2017-03-02T00:58:44.356Z,61.19
2017-03-02T00:59:54.947Z,61.18
2017-03-02T01:00:55.071Z,61.20
2017-03-02T01:01:49.304Z,61.20
2017-03-02T01:02:40.092Z,61.19
2017-03-02T01:03:57.005Z,61.19
2017-03-02T01:04:56.180Z,61.21
2017-03-02T01:05:46.117Z,61.23
2017-03-02T01:06:49.098Z,61.25
2017-03-02T01:07:43.876Z,61.27
2017-03-02T01:08:50.004Z,61.26
2017-03-02T01:09:54.642Z,61.30
2017-03-02T01:10:58.421Z,61.29
2017-03-02T01:11:34.337Z,61.31
2017-03-02T01:12:58.668Z,61.28
2017-03-02T01:13:58.814Z,61.31
2017-03-02T01:14:49.313Z,61.34
2017-03-02T01:15:45.814Z,61.33
2017-03-02T01:16:56.361Z,61.34
2017-03-02T01:17:56.148Z,61.37
2017-03-02T01:18:57.623Z,61.32
2017-03-02T01:19:56.183Z,61.36
2017-03-02T01:21:05.067Z,61.37
2017-03-02T01:21:53.293Z,61.35
2017-03-02T01:22:50.552Z,61.37
2017-03-02T01:24:02.982Z,61.37
2017-03-02T01:24:57.036Z,61.40
2017-03-02T01:25:36.507Z,61.38
2017-03-02T01:26:41.024Z,61.40
2017-03-02T01:27:42.775Z,61.38
2017-03-02T01:28:43.883Z,61.44
2017-03-02T01:29:44.286Z,61.41
2017-03-02T01:30:42.925Z,61.44
2017-03-02T01:31:42.786Z,61.45
2017-03-02T01:32:32.523Z,61.46
2017-03-02T01:33:56.836Z,61.49
2017-03-02T01:34:46.083Z,61.42
2017-03-02T01:36:16.016Z,61.49
2017-03-02T01:36:36.552Z,61.52
2017-03-02T01:37:57.051Z,61.50
2017-03-02T01:38:49.586Z,61.52
2017-03-02T01:40:00.116Z,61.54
2017-03-02T01:40:31.872Z,61.52
2017-03-02T01:42:04.636Z,61.54
2017-03-02T01:42:39.578Z,61.52
2017-03-02T01:44:19.155Z,61.51
2017-03-02T01:45:28.081Z,61.55
2017-03-02T01:46:21.076Z,61.53
2017-03-02T01:47:17.847Z,61.56
2017-03-02T01:48:12.598Z,61.54
2017-03-02T01:48:58.997Z,61.52
2017-03-02T01:50:04.887Z,61.59
2017-03-02T01:51:17.332Z,61.59
2017-03-02T01:51:58.067Z,61.57
2017-03-02T01:52:56.163Z,61.57
2017-03-02T01:53:58.069Z,61.63
2017-03-02T01:54:58.962Z,61.61
2017-03-02T01:55:55.322Z,61.63
2017-03-02T01:56:54.630Z,61.61
2017-03-02T01:57:45.357Z,61.64
2017-03-02T01:58:50.551Z,60.77
2017-03-02T01:59:50.734Z,60.63
2017-03-02T02:01:11.659Z,60.50
2017-03-02T02:01:56.577Z,60.40
2017-03-02T02:02:55.903Z,60.41
2017-03-02T02:03:59.617Z,60.43
2017-03-02T02:04:45.231Z,60.40
2017-03-02T02:05:48.843Z,60.22
2017-03-02T02:06:57.290Z,60.44
2017-03-02T02:07:43.430Z,60.37
2017-03-02T02:08:56.826Z,60.30
2017-03-02T02:09:44.740Z,60.35
2017-03-02T02:10:49.565Z,61.22
2017-03-02T02:11:56.202Z,61.35
2017-03-02T02:12:55.219Z,61.46
2017-03-02T02:13:54.179Z,61.50
2017-03-02T02:14:54.280Z,61.54
2017-03-02T02:15:43.378Z,61.56
2017-03-02T02:16:47.622Z,61.61
2017-03-02T02:17:57.328Z,61.62
2017-03-02T02:18:56.636Z,61.64
2017-03-02T02:19:48.371Z,61.67
2017-03-02T02:20:47.908Z,61.68
2017-03-02T02:21:45.930Z,61.67
2017-03-02T02:22:35.205Z,61.66
2017-03-02T02:23:45.164Z,61.68
2017-03-02T02:24:47.871Z,61.65
2017-03-02T02:25:54.538Z,61.71
2017-03-02T02:26:54.419Z,61.73
2017-03-02T02:27:37.638Z,61.73
2017-03-02T02:28:31.766Z,61.75
2017-03-02T02:29:54.046Z,61.79
2017-03-02T02:30:58.552Z,61.81
2017-03-02T02:31:45.624Z,61.82
2017-03-02T02:32:52.082Z,61.83
2017-03-02T02:33:58.175Z,61.82
2017-03-02T02:34:43.688Z,61.84
2017-03-02T02:35:53.997Z,61.87
2017-03-02T02:36:55.284Z,61.86
2017-03-02T02:37:50.307Z,61.89
2017-03-02T02:38:52.315Z,61.89
2017-03-02T02:39:58.004Z,61.93
2017-03-02T02:40:48.975Z,61.88
2017-03-02T02:41:52.322Z,61.92
2017-03-02T02:42:44.916Z,61.94
2017-03-02T02:44:16.757Z,61.94
2017-03-02T02:44:50.190Z,61.94
2017-03-02T02:45:56.659Z,61.93
2017-03-02T02:46:56.263Z,61.83
2017-03-02T02:47:45.158Z,61.08
2017-03-02T02:48:45.732Z,60.93
2017-03-02T02:49:56.245Z,61.70
2017-03-02T02:50:41.443Z,61.82
2017-03-02T02:51:37.745Z,61.90
2017-03-02T02:52:44.545Z,61.92
2017-03-02T02:53:51.056Z,61.92
2017-03-02T02:54:56.496Z,61.95
2017-03-02T02:55:56.128Z,61.92
2017-03-02T02:56:48.941Z,61.90
2017-03-02T02:57:59.424Z,61.98
2017-03-02T02:58:54.905Z,61.95
2017-03-02T02:59:54.631Z,61.97
2017-03-02T03:00:50.379Z,61.99
2017-03-02T03:01:55.511Z,61.99
2017-03-02T03:02:56.567Z,61.99
2017-03-02T03:03:46.599Z,61.99
2017-03-02T03:04:56.683Z,62.01
2017-03-02T03:06:00.179Z,62.03
2017-03-02T03:07:01.772Z,62.04
2017-03-02T03:07:56.223Z,62.01
2017-03-02T03:08:54.296Z,62.05
2017-03-02T03:09:52.413Z,62.06
2017-03-02T03:10:54.296Z,62.06
2017-03-02T03:11:45.688Z,62.07
2017-03-02T03:12:55.076Z,62.07
2017-03-02T03:13:50.166Z,62.10
2017-03-02T03:14:46.433Z,62.08
2017-03-02T03:15:55.049Z,62.07
2017-03-02T03:16:45.355Z,62.07
2017-03-02T03:17:57.452Z,62.05
2017-03-02T03:18:46.405Z,62.06
2017-03-02T03:20:07.788Z,62.07
2017-03-02T03:20:56.539Z,62.10
2017-03-02T03:21:46.813Z,62.06
2017-03-02T03:22:56.972Z,62.10
2017-03-02T03:23:55.781Z,62.11
2017-03-02T03:24:50.362Z,62.10
2017-03-02T03:25:59.135Z,62.12
2017-03-02T03:26:53.198Z,62.13
2017-03-02T03:27:46.094Z,62.17
2017-03-02T03:28:58.570Z,62.16
2017-03-02T03:29:48.317Z,62.16
2017-03-02T03:30:55.828Z,62.15
2017-03-02T03:31:58.670Z,62.18
2017-03-02T03:32:59.726Z,62.18
2017-03-02T03:33:56.513Z,62.18
2017-03-02T03:34:45.564Z,62.16
2017-03-02T03:35:52.181Z,62.24
2017-03-02T03:36:54.370Z,62.29
2017-03-02T03:37:54.704Z,62.28
2017-03-02T03:38:40.966Z,62.28
2017-03-02T03:39:57.497Z,62.22
2017-03-02T03:40:55.667Z,62.24
2017-03-02T03:41:50.172Z,62.26
2017-03-02T03:42:58.190Z,62.27
2017-03-02T03:43:57.735Z,62.30
2017-03-02T03:44:54.873Z,62.31
2017-03-02T03:45:58.018Z,62.32
2017-03-02T03:46:49.359Z,62.33
2017-03-02T03:47:55.264Z,62.32
2017-03-02T03:48:45.343Z,62.30
2017-03-02T03:49:50.670Z,62.32
2017-03-02T03:50:47.769Z,62.30
2017-03-02T03:51:51.421Z,62.36
2017-03-02T03:52:58.473Z,62.35
2017-03-02T03:53:48.008Z,62.32
2017-03-02T03:54:51.373Z,62.33
2017-03-02T03:55:47.886Z,62.34
2017-03-02T03:56:49.589Z,62.35
2017-03-02T03:57:56.992Z,62.36
2017-03-02T03:58:58.720Z,62.34
2017-03-02T03:59:55.696Z,62.36
2017-03-02T04:00:51.154Z,62.36
2017-03-02T04:01:57.152Z,62.44
2017-03-02T04:02:53.952Z,62.41
2017-03-02T04:03:54.592Z,62.44
2017-03-02T04:04:43.231Z,62.48
2017-03-02T04:05:36.231Z,62.49
2017-03-02T04:06:37.456Z,62.46
2017-03-02T04:07:38.243Z,62.49
2017-03-02T04:08:49.606Z,62.47
2017-03-02T04:09:50.126Z,62.50
2017-03-02T04:10:42.782Z,62.48
2017-03-02T04:11:53.203Z,62.48
2017-03-02T04:13:03.999Z,62.52
2017-03-02T04:13:42.700Z,62.49
2017-03-02T04:14:57.918Z,62.54
2017-03-02T04:15:46.993Z,62.56
2017-03-02T04:16:45.911Z,62.58
2017-03-02T04:17:56.869Z,62.57
2017-03-02T04:18:44.212Z,62.57
2017-03-02T04:19:58.085Z,62.59
2017-03-02T04:20:57.552Z,62.57
2017-03-02T04:21:46.611Z,62.59
2017-03-02T04:22:58.101Z,62.57
2017-03-02T04:23:51.023Z,62.58
2017-03-02T04:24:40.739Z,62.59
2017-03-02T04:25:58.252Z,62.60
2017-03-02T04:27:24.067Z,62.65
2017-03-02T04:28:07.220Z,62.66
2017-03-02T04:28:59.073Z,62.63
2017-03-02T04:29:56.564Z,62.65
2017-03-02T04:30:42.738Z,62.65
2017-03-02T04:31:48.113Z,62.63
2017-03-02T04:32:44.485Z,62.65
2017-03-02T04:33:58.053Z,62.65
2017-03-02T04:34:55.985Z,62.63
2017-03-02T04:35:52.776Z,62.65
2017-03-02T04:36:59.065Z,62.66
2017-03-02T04:37:58.299Z,62.68
2017-03-02T04:38:49.448Z,62.66
2017-03-02T04:39:45.674Z,62.67
2017-03-02T04:40:46.761Z,62.67
2017-03-02T04:41:42.500Z,62.65
2017-03-02T04:42:59.460Z,62.64
2017-03-02T04:43:54.417Z,62.65
2017-03-02T04:44:59.712Z,62.62
2017-03-02T04:45:59.402Z,62.65
2017-03-02T04:46:57.596Z,62.66
2017-03-02T04:47:54.160Z,62.65
2017-03-02T04:48:51.296Z,62.67
2017-03-02T04:49:45.581Z,62.68
2017-03-02T04:50:56.612Z,62.71
2017-03-02T04:51:40.641Z,62.71
2017-03-02T04:52:49.010Z,62.69
2017-03-02T04:53:57.368Z,62.74
2017-03-02T04:54:57.967Z,62.75
2017-03-02T04:55:49.719Z,62.74
2017-03-02T04:56:59.923Z,62.71
2017-03-02T04:57:56.239Z,62.74
2017-03-02T04:58:57.318Z,62.73
2017-03-02T04:59:45.179Z,62.73
2017-03-02T05:00:49.749Z,62.75
2017-03-02T05:01:57.013Z,62.86
2017-03-02T05:02:43.774Z,62.88
2017-03-02T05:03:46.187Z,62.86
2017-03-02T05:04:57.601Z,62.97
2017-03-02T05:05:51.945Z,62.96
2017-03-02T05:06:45.484Z,62.99
2017-03-02T05:07:54.226Z,62.98
2017-03-02T05:09:04.227Z,63.05
2017-03-02T05:09:43.489Z,63.00
2017-03-02T05:10:46.716Z,62.95
2017-03-02T05:11:50.185Z,62.98
2017-03-02T05:12:56.520Z,62.99
2017-03-02T05:13:56.488Z,63.04
2017-03-02T05:14:57.283Z,62.98
2017-03-02T05:15:56.691Z,62.96
2017-03-02T05:16:50.519Z,63.00
2017-03-02T05:17:46.861Z,62.96
2017-03-02T05:18:45.792Z,62.82
2017-03-02T05:19:56.861Z,62.11
2017-03-02T05:20:56.441Z,61.95
2017-03-02T05:21:50.368Z,62.29
2017-03-02T05:22:48.521Z,62.67
2017-03-02T05:23:59.291Z,62.81
2017-03-02T05:24:50.055Z,62.89
2017-03-02T05:25:51.135Z,62.84
2017-03-02T05:26:59.048Z,62.92
2017-03-02T05:27:57.369Z,63.01
2017-03-02T05:28:45.385Z,63.02
2017-03-02T05:29:43.375Z,63.05
2017-03-02T05:31:04.337Z,63.10
2017-03-02T05:31:42.871Z,62.99
2017-03-02T05:32:42.292Z,62.99
2017-03-02T05:33:48.529Z,63.01
2017-03-02T05:34:55.122Z,63.01
2017-03-02T05:35:58.655Z,62.95
2017-03-02T05:36:44.173Z,62.92
2017-03-02T05:37:59.919Z,62.92
2017-03-02T05:38:47.720Z,62.90
2017-03-02T05:39:45.290Z,62.90
2017-03-02T05:40:47.278Z,62.89
2017-03-02T05:41:49.067Z,62.92
2017-03-02T05:42:50.217Z,62.90
2017-03-02T05:43:46.871Z,62.92
2017-03-02T05:44:39.561Z,62.84
2017-03-02T05:45:54.070Z,62.88
2017-03-02T05:46:39.807Z,62.90
2017-03-02T05:47:59.972Z,62.91
2017-03-02T05:48:44.156Z,62.90
2017-03-02T05:49:38.103Z,62.91
2017-03-02T05:50:43.575Z,62.89
2017-03-02T05:51:55.607Z,62.90
2017-03-02T05:52:55.323Z,62.90
2017-03-02T05:54:48.567Z,62.89
2017-03-02T05:55:52.319Z,62.91
2017-03-02T05:56:53.731Z,62.92
2017-03-02T05:57:59.964Z,62.95
2017-03-02T05:58:48.673Z,62.93
2017-03-02T05:59:54.072Z,62.94
2017-03-02T06:00:58.510Z,62.94
2017-03-02T06:01:39.830Z,62.94
2017-03-02T06:02:40.196Z,62.94
2017-03-02T06:03:57.799Z,62.97
2017-03-02T06:04:58.549Z,62.97
2017-03-02T06:06:18.838Z,62.96
2017-03-02T06:06:57.428Z,62.95
2017-03-02T06:07:57.254Z,62.96
2017-03-02T06:08:55.310Z,62.98
2017-03-02T06:09:55.410Z,62.96
2017-03-02T06:10:57.054Z,63.02
2017-03-02T06:11:50.466Z,63.00
2017-03-02T06:12:55.570Z,63.01
2017-03-02T06:13:50.862Z,63.00
2017-03-02T06:14:52.104Z,62.99
2017-03-02T06:15:58.799Z,62.99
2017-03-02T06:17:04.572Z,62.99
2017-03-02T06:17:54.117Z,62.99
2017-03-02T06:18:58.252Z,62.99
2017-03-02T06:19:49.522Z,62.99
2017-03-02T06:20:59.055Z,63.01
2017-03-02T06:21:56.554Z,63.00
2017-03-02T06:22:58.568Z,62.99
2017-03-02T06:23:55.813Z,63.02
2017-03-02T06:25:15.773Z,63.00
2017-03-02T06:25:48.652Z,63.00
2017-03-02T06:26:56.227Z,63.02
2017-03-02T06:27:50.271Z,63.07
2017-03-02T06:28:51.728Z,62.98
2017-03-02T06:29:39.848Z,63.07
2017-03-02T06:30:41.400Z,63.04
2017-03-02T06:31:28.191Z,63.02
2017-03-02T06:32:36.748Z,63.04
2017-03-02T06:33:38.221Z,62.99
2017-03-02T06:34:43.279Z,63.14
2017-03-02T06:35:38.907Z,63.12
2017-03-02T06:36:38.012Z,63.12
2017-03-02T06:37:34.746Z,63.12
2017-03-02T06:38:39.788Z,63.11
2017-03-02T06:39:38.696Z,63.15
2017-03-02T06:40:45.403Z,63.12
2017-03-02T06:41:32.521Z,63.13
2017-03-02T06:42:37.993Z,63.13
2017-03-02T06:43:37.030Z,63.12
2017-03-02T06:44:39.527Z,62.94
2017-03-02T06:45:44.015Z,62.21
2017-03-02T06:46:43.774Z,62.04
2017-03-02T06:47:42.613Z,61.93
2017-03-02T06:48:43.999Z,62.10
2017-03-02T06:49:27.026Z,62.70
2017-03-02T06:50:27.778Z,62.83
2017-03-02T06:51:31.645Z,62.89
2017-03-02T06:52:31.536Z,62.92
2017-03-02T06:53:33.242Z,62.94
2017-03-02T06:54:34.591Z,62.95
2017-03-02T06:55:32.093Z,62.95
2017-03-02T06:56:33.989Z,62.95
2017-03-02T06:57:39.349Z,62.81
2017-03-02T06:58:36.832Z,62.06
2017-03-02T06:59:47.357Z,62.74
2017-03-02T07:00:34.263Z,62.83
2017-03-02T07:01:36.086Z,62.88
2017-03-02T07:02:32.464Z,62.89
2017-03-02T07:03:37.513Z,62.89
2017-03-02T07:04:35.197Z,62.89
2017-03-02T07:05:42.046Z,62.91
2017-03-02T07:06:38.542Z,62.91
2017-03-02T07:07:43.651Z,62.92
2017-03-02T07:08:39.651Z,62.92
2017-03-02T07:09:43.857Z,62.94
2017-03-02T07:10:39.328Z,62.95
2017-03-02T07:11:37.784Z,62.95
2017-03-02T07:13:13.054Z,62.96
2017-03-02T07:13:43.547Z,62.95
2017-03-02T07:15:00.093Z,62.94
2017-03-02T07:15:53.889Z,62.95
2017-03-02T07:16:35.666Z,62.95
2017-03-02T07:17:44.611Z,62.93
2017-03-02T07:18:54.883Z,62.95
2017-03-02T07:19:49.912Z,62.93
2017-03-02T07:20:59.122Z,62.94
2017-03-02T07:21:54.673Z,62.92
2017-03-02T07:22:55.780Z,62.92
2017-03-02T07:23:56.751Z,62.91
2017-03-02T07:24:52.516Z,62.89
2017-03-02T07:25:56.869Z,62.90
2017-03-02T07:26:46.127Z,62.91
2017-03-02T07:27:45.123Z,62.92
2017-03-02T07:28:59.135Z,62.94
2017-03-02T07:29:58.175Z,62.99
2017-03-02T07:30:48.378Z,63.05
2017-03-02T07:31:48.122Z,63.13
2017-03-02T07:32:53.682Z,63.12
2017-03-02T07:34:07.534Z,63.13
2017-03-02T07:34:58.962Z,63.08
2017-03-02T07:36:50.292Z,63.32
2017-03-02T07:37:53.902Z,63.14
2017-03-02T07:38:59.333Z,63.17
2017-03-02T07:39:58.162Z,63.36
2017-03-02T07:40:52.780Z,63.38
2017-03-02T07:41:58.984Z,63.13
2017-03-02T07:42:53.692Z,62.44
2017-03-02T07:43:59.895Z,62.19
2017-03-02T07:44:58.571Z,62.12
2017-03-02T07:45:58.952Z,62.12
2017-03-02T07:46:53.158Z,62.50
2017-03-02T07:47:44.887Z,62.83
2017-03-02T07:48:45.678Z,62.88
2017-03-02T07:49:59.044Z,62.87
2017-03-02T07:50:54.631Z,60.15
2017-03-02T07:51:52.642Z,56.68
2017-03-02T07:52:58.454Z,55.91
2017-03-02T07:53:53.719Z,54.47
2017-03-02T07:54:45.239Z,53.75
2017-03-02T07:55:53.635Z,53.83
2017-03-02T07:56:50.884Z,54.74
2017-03-02T07:57:56.193Z,56.70
2017-03-02T07:58:48.072Z,57.81
2017-03-02T08:00:57.006Z,59.81
2017-03-02T08:02:00.155Z,60.04
2017-03-02T08:03:15.875Z,60.27
2017-03-02T08:04:31.505Z,60.32
2017-03-02T08:04:57.961Z,60.39
2017-03-02T08:06:06.133Z,61.08
2017-03-02T08:06:50.541Z,61.44
2017-03-02T08:07:50.615Z,61.75
2017-03-02T08:08:56.484Z,61.68
2017-03-02T08:09:52.944Z,61.95
2017-03-02T08:10:57.181Z,61.86
2017-03-02T08:11:59.264Z,61.91
2017-03-02T08:12:52.668Z,61.76
2017-03-02T08:13:53.840Z,61.79
2017-03-02T08:14:57.477Z,61.68
2017-03-02T08:15:46.444Z,61.63
2017-03-02T08:16:49.603Z,61.57
2017-03-02T08:17:50.362Z,61.61
2017-03-02T08:19:06.108Z,61.65
2017-03-02T08:19:56.568Z,61.57
2017-03-02T08:20:52.591Z,60.79
2017-03-02T08:21:50.580Z,60.69
2017-03-02T08:22:56.326Z,60.58
2017-03-02T08:23:45.659Z,60.54
2017-03-02T08:24:58.590Z,60.46
2017-03-02T08:25:52.657Z,60.40
2017-03-02T08:26:55.914Z,60.40
2017-03-02T08:27:56.605Z,60.46
2017-03-02T08:28:59.304Z,61.16
2017-03-02T08:29:48.674Z,62.72
2017-03-02T08:31:19.108Z,62.66
2017-03-02T08:31:47.723Z,62.84
2017-03-02T08:32:58.012Z,62.92
2017-03-02T08:33:59.455Z,62.92
2017-03-02T08:34:59.197Z,63.53
2017-03-02T08:35:43.632Z,63.46
2017-03-02T08:36:59.144Z,62.93
2017-03-02T08:37:54.144Z,62.72
2017-03-02T08:39:56.317Z,61.88
2017-03-02T08:40:53.558Z,61.77
2017-03-02T08:41:58.721Z,61.98
2017-03-02T08:42:59.032Z,61.87
2017-03-02T08:44:00.090Z,62.17
2017-03-02T08:44:59.218Z,62.09
2017-03-02T08:45:55.211Z,62.01
2017-03-02T08:46:55.919Z,61.95
2017-03-02T08:47:50.128Z,61.93
2017-03-02T08:48:58.595Z,61.89
2017-03-02T08:49:52.651Z,61.45
2017-03-02T08:50:49.659Z,61.12
2017-03-02T08:51:50.579Z,60.87
2017-03-02T08:52:45.158Z,60.88
2017-03-02T08:53:35.189Z,60.82
2017-03-02T08:54:57.581Z,60.75
2017-03-02T08:55:42.254Z,60.80
2017-03-02T08:56:58.347Z,60.78
2017-03-02T08:57:45.231Z,60.86
2017-03-02T08:58:59.304Z,60.91
2017-03-02T08:59:56.574Z,61.16
2017-03-02T09:01:03.661Z,61.32
2017-03-02T09:01:52.607Z,61.25
2017-03-02T09:02:49.923Z,61.29
2017-03-02T09:03:52.295Z,61.30
2017-03-02T09:04:50.996Z,61.30
2017-03-02T09:05:58.594Z,61.32
2017-03-02T09:07:17.161Z,61.32
2017-03-02T09:07:50.989Z,61.31
2017-03-02T09:08:49.582Z,61.29
2017-03-02T09:10:15.300Z,61.36
2017-03-02T09:10:57.915Z,61.37
2017-03-02T09:11:57.706Z,61.34
2017-03-02T09:12:55.545Z,61.38
2017-03-02T09:13:58.199Z,61.35
2017-03-02T09:15:56.768Z,61.34
2017-03-02T09:16:46.149Z,61.31
2017-03-02T09:17:58.717Z,61.23
2017-03-02T09:18:49.241Z,61.25
2017-03-02T09:19:58.615Z,61.12
2017-03-02T09:20:46.470Z,61.04
2017-03-02T09:21:58.134Z,61.03
2017-03-02T09:22:59.353Z,61.08
2017-03-02T09:23:58.384Z,61.04
2017-03-02T09:24:46.366Z,61.06
2017-03-02T09:26:46.709Z,61.07
2017-03-02T09:28:15.057Z,61.08
2017-03-02T09:28:48.938Z,61.07
2017-03-02T09:29:59.104Z,61.06
2017-03-02T09:31:12.375Z,61.04
2017-03-02T09:32:18.165Z,61.04
2017-03-02T09:32:51.981Z,61.02
2017-03-02T09:34:16.173Z,61.01
2017-03-02T09:34:55.104Z,61.00
2017-03-02T09:36:11.672Z,60.98
2017-03-02T09:36:53.866Z,60.97
2017-03-02T09:38:03.799Z,60.97
2017-03-02T09:38:52.969Z,60.94
2017-03-02T09:39:48.631Z,60.92
2017-03-02T09:40:50.930Z,60.92
2017-03-02T09:41:58.676Z,60.89
2017-03-02T09:42:45.429Z,60.88
2017-03-02T09:44:06.776Z,60.87
2017-03-02T09:44:56.267Z,60.86
2017-03-02T09:45:54.998Z,60.86
2017-03-02T09:46:53.230Z,60.85
2017-03-02T09:47:54.153Z,60.83
2017-03-02T09:48:59.911Z,60.82
2017-03-02T09:50:13.242Z,60.81
2017-03-02T09:50:57.832Z,60.79
2017-03-02T09:51:54.454Z,60.78
2017-03-02T09:52:49.576Z,60.77
2017-03-02T09:54:06.380Z,60.76
2017-03-02T09:55:44.791Z,60.73
2017-03-02T09:57:59.484Z,60.73
2017-03-02T09:58:59.157Z,60.73
2017-03-02T09:59:58.411Z,60.70
2017-03-02T10:00:56.833Z,60.69
2017-03-02T10:01:54.910Z,60.68
2017-03-02T10:02:54.103Z,60.67
2017-03-02T10:03:59.156Z,60.66
2017-03-02T10:04:55.715Z,60.66
2017-03-02T10:05:55.652Z,60.64
2017-03-02T10:07:58.687Z,60.62
2017-03-02T10:09:00.046Z,60.61
2017-03-02T10:09:59.033Z,60.60
2017-03-02T10:10:54.086Z,60.60
2017-03-02T10:12:04.464Z,60.59
2017-03-02T10:12:55.702Z,60.59
2017-03-02T10:13:59.649Z,60.57
2017-03-02T10:14:55.580Z,60.55
2017-03-02T10:15:50.334Z,60.54
2017-03-02T10:16:49.887Z,60.53
2017-03-02T10:17:54.336Z,60.54
2017-03-02T10:19:13.912Z,60.53
2017-03-02T10:19:52.898Z,60.53
2017-03-02T10:20:59.348Z,60.52
2017-03-02T10:21:56.232Z,60.51
2017-03-02T10:22:59.334Z,60.49
2017-03-02T10:23:49.284Z,60.48
2017-03-02T10:24:59.404Z,60.47
2017-03-02T10:26:16.311Z,60.46
2017-03-02T10:26:58.707Z,60.45
2017-03-02T10:27:57.720Z,60.43
2017-03-02T10:28:57.359Z,60.43
2017-03-02T10:29:58.407Z,60.43
2017-03-02T10:30:45.362Z,60.41
2017-03-02T10:31:55.116Z,60.40
2017-03-02T10:34:00.823Z,60.38
2017-03-02T10:34:59.702Z,60.35
2017-03-02T10:35:45.131Z,60.34
2017-03-02T10:36:52.593Z,60.35
2017-03-02T10:37:57.220Z,59.50
2017-03-02T10:38:57.408Z,59.32
2017-03-02T10:39:39.721Z,59.23
2017-03-02T10:40:50.697Z,59.15
2017-03-02T10:41:58.727Z,59.14
2017-03-02T10:43:14.050Z,59.07
2017-03-02T10:43:58.074Z,59.04
2017-03-02T10:44:57.951Z,59.01
2017-03-02T10:45:59.217Z,58.97
2017-03-02T10:46:55.287Z,58.97
2017-03-02T10:47:56.162Z,58.87
2017-03-02T10:48:57.063Z,58.94
2017-03-02T10:49:56.114Z,58.96
2017-03-02T10:50:56.854Z,58.89
2017-03-02T10:52:08.629Z,58.86
2017-03-02T10:52:52.542Z,58.87
2017-03-02T10:53:54.016Z,58.85
2017-03-02T10:54:54.011Z,59.63
2017-03-02T10:55:54.116Z,59.80
2017-03-02T10:56:50.393Z,59.90
2017-03-02T10:58:49.907Z,59.95
2017-03-02T10:59:44.615Z,59.97
2017-03-02T11:00:42.540Z,59.98
2017-03-02T11:02:20.657Z,59.99
2017-03-02T11:03:09.095Z,59.99
2017-03-02T11:03:58.409Z,59.99
2017-03-02T11:04:58.034Z,60.00
2017-03-02T11:05:59.664Z,59.96
2017-03-02T11:06:49.346Z,59.99
2017-03-02T11:07:54.732Z,59.97
2017-03-02T11:09:00.038Z,59.96
2017-03-02T11:09:59.307Z,59.96
2017-03-02T11:10:58.009Z,59.95
2017-03-02T11:11:58.817Z,59.93
2017-03-02T11:12:50.046Z,59.88
2017-03-02T11:13:55.256Z,59.05
2017-03-02T11:14:59.820Z,58.89
2017-03-02T11:15:49.347Z,58.79
2017-03-02T11:16:50.344Z,58.77
2017-03-02T11:17:44.706Z,58.70
2017-03-02T11:18:56.165Z,59.52
2017-03-02T11:19:59.452Z,59.64
2017-03-02T11:20:50.414Z,59.71
2017-03-02T11:22:25.793Z,59.74
2017-03-02T11:22:58.927Z,59.74
2017-03-02T11:23:49.439Z,59.75
2017-03-02T11:24:59.276Z,59.77
2017-03-02T11:26:54.281Z,59.75
2017-03-02T11:27:55.227Z,59.75
2017-03-02T11:29:03.314Z,59.75
2017-03-02T11:29:58.447Z,59.74
2017-03-02T11:31:55.818Z,59.74
2017-03-02T11:32:58.961Z,59.71
2017-03-02T11:33:53.398Z,59.70
2017-03-02T11:35:10.340Z,59.71
2017-03-02T11:35:52.521Z,59.70
2017-03-02T11:37:00.165Z,59.70
2017-03-02T11:37:56.583Z,59.69
2017-03-02T11:38:59.044Z,59.69
2017-03-02T11:39:43.467Z,59.68
2017-03-02T11:40:58.488Z,59.67
2017-03-02T11:41:55.038Z,59.67
2017-03-02T11:42:52.241Z,59.65
2017-03-02T11:43:57.822Z,59.66
2017-03-02T11:44:59.268Z,59.64
2017-03-02T11:46:59.544Z,59.63
2017-03-02T11:47:49.826Z,59.62
2017-03-02T11:48:56.052Z,59.62
2017-03-02T11:49:54.078Z,59.61
2017-03-02T11:50:58.339Z,59.58
2017-03-02T11:51:53.602Z,59.37
2017-03-02T11:52:59.587Z,59.43
2017-03-02T11:54:00.210Z,59.39
2017-03-02T11:55:23.863Z,59.48
2017-03-02T11:55:57.667Z,59.49
2017-03-02T11:57:27.606Z,59.51
2017-03-02T11:57:51.207Z,59.51
2017-03-02T11:59:18.967Z,59.51
2017-03-02T11:59:57.504Z,59.48
2017-03-02T12:00:45.177Z,59.48
2017-03-02T12:02:03.483Z,59.49
2017-03-02T12:02:49.412Z,59.48
2017-03-02T12:03:54.230Z,59.32
2017-03-02T12:05:15.423Z,59.40
2017-03-02T12:05:58.801Z,59.42
2017-03-02T12:06:48.950Z,59.41
2017-03-02T12:08:04.721Z,59.37
2017-03-02T12:08:50.084Z,59.23
2017-03-02T12:09:59.583Z,59.36
2017-03-02T12:10:45.852Z,59.26
2017-03-02T12:11:50.860Z,59.41
2017-03-02T12:12:59.585Z,59.42
2017-03-02T12:13:54.947Z,59.41
2017-03-02T12:14:54.978Z,59.42
2017-03-02T12:15:49.475Z,59.40
2017-03-02T12:16:52.051Z,59.40
2017-03-02T12:18:12.171Z,59.39
2017-03-02T12:18:52.151Z,59.38
2017-03-02T12:19:58.837Z,59.39
2017-03-02T12:20:57.214Z,59.39
2017-03-02T12:22:20.294Z,59.39
2017-03-02T12:23:13.447Z,59.36
2017-03-02T12:24:17.655Z,59.36
2017-03-02T12:25:59.357Z,59.35
2017-03-02T12:26:48.322Z,59.34
2017-03-02T12:27:54.336Z,59.34
2017-03-02T12:28:55.502Z,59.33
2017-03-02T12:29:59.381Z,59.31
2017-03-02T12:30:48.889Z,59.32
2017-03-02T12:31:56.961Z,59.32
2017-03-02T12:32:54.789Z,59.32
2017-03-02T12:33:56.567Z,59.32
2017-03-02T12:34:54.957Z,59.30
2017-03-02T12:35:48.700Z,59.30
2017-03-02T12:36:59.272Z,59.30
2017-03-02T12:37:59.032Z,59.29
2017-03-02T12:38:55.254Z,59.29
2017-03-02T12:39:54.967Z,59.29
2017-03-02T12:41:06.267Z,59.31
2017-03-02T12:42:14.503Z,59.31
2017-03-02T12:42:59.851Z,59.30
2017-03-02T12:43:52.368Z,59.30
2017-03-02T12:44:54.568Z,59.31
2017-03-02T12:45:50.493Z,59.30
2017-03-02T12:46:55.289Z,59.29
2017-03-02T12:47:49.383Z,59.27
2017-03-02T12:48:55.036Z,59.30
2017-03-02T12:49:59.808Z,59.29
2017-03-02T12:51:14.871Z,59.27
2017-03-02T12:51:53.749Z,59.24
2017-03-02T12:52:58.645Z,59.26
2017-03-02T12:53:58.253Z,59.22
2017-03-02T12:54:59.649Z,59.26
2017-03-02T12:55:54.632Z,59.26
2017-03-02T12:56:58.217Z,59.28
2017-03-02T12:57:57.961Z,59.28
2017-03-02T12:59:17.435Z,59.29
2017-03-02T12:59:51.147Z,59.27
2017-03-02T13:00:59.685Z,59.28
2017-03-02T13:01:49.631Z,59.27
2017-03-02T13:02:52.121Z,59.27
2017-03-02T13:04:02.785Z,59.27
2017-03-02T13:04:53.512Z,59.26
2017-03-02T13:05:46.515Z,59.24
2017-03-02T13:06:54.657Z,59.25
2017-03-02T13:07:54.701Z,59.23
2017-03-02T13:09:15.456Z,59.23